createdAt,value
2023-04-07T00:00:05.241Z,22.89
2023-04-07T00:00:40.643Z,22.86
2023-04-07T00:01:16.333Z,22.93
2023-04-07T00:01:52.326Z,22.93
2023-04-07T00:02:28.246Z,22.95
2023-04-07T00:03:04.601Z,22.94
2023-04-07T00:03:40.572Z,22.99
2023-04-07T00:04:16.691Z,22.91
2023-04-07T00:04:52.322Z,22.90
2023-04-07T00:05:28.512Z,22.86
2023-04-07T00:06:03.878Z,22.87
2023-04-07T00:06:39.523Z,22.89
2023-04-07T00:07:15.500Z,22.91
2023-04-07T00:07:56.365Z,22.94
2023-04-07T00:08:32.603Z,22.94
2023-04-07T00:09:07.852Z,22.97
2023-04-07T00:09:43.739Z,22.99
2023-04-07T00:10:19.671Z,22.97
2023-04-07T00:10:56.004Z,22.97
2023-04-07T00:11:31.553Z,22.97
2023-04-07T00:12:07.862Z,22.96
2023-04-07T00:12:44.054Z,22.96
2023-04-07T00:13:20.169Z,22.96
2023-04-07T00:13:56.469Z,22.98
2023-04-07T00:14:32.477Z,22.99
2023-04-07T00:15:07.969Z,22.96
2023-04-07T00:15:43.948Z,22.98
2023-04-07T00:16:19.730Z,23.00
2023-04-07T00:16:55.217Z,22.99
2023-04-07T00:17:30.808Z,22.99
2023-04-07T00:18:06.480Z,23.04
2023-04-07T00:18:42.657Z,23.03
2023-04-07T00:19:18.391Z,23.03
2023-04-07T00:19:53.871Z,23.03
2023-04-07T00:20:29.408Z,23.00
2023-04-07T00:21:05.579Z,22.99
2023-04-07T00:21:41.389Z,22.96
2023-04-07T00:22:17.466Z,22.99
2023-04-07T00:22:53.467Z,23.00
2023-04-07T00:23:29.587Z,23.00
2023-04-07T00:24:05.618Z,22.96
2023-04-07T00:24:41.266Z,22.97
2023-04-07T00:25:16.788Z,22.95
2023-04-07T00:25:52.566Z,22.94
2023-04-07T00:26:28.557Z,22.97
2023-04-07T00:27:04.762Z,22.99
2023-04-07T00:27:40.739Z,22.96
2023-04-07T00:28:16.848Z,22.95
2023-04-07T00:28:52.764Z,22.96
2023-04-07T00:29:28.807Z,22.95
2023-04-07T00:30:09.096Z,22.98
2023-04-07T00:30:44.603Z,22.99
2023-04-07T00:31:21.100Z,22.99
2023-04-07T00:31:58.003Z,22.98
2023-04-07T00:32:34.696Z,22.98
2023-04-07T00:33:10.484Z,22.99
2023-04-07T00:33:46.799Z,22.96
2023-04-07T00:34:22.028Z,22.97
2023-04-07T00:34:57.625Z,22.98
2023-04-07T00:35:33.528Z,22.94
2023-04-07T00:36:09.710Z,22.96
2023-04-07T00:36:46.083Z,22.98
2023-04-07T00:37:22.063Z,22.97
2023-04-07T00:37:58.375Z,22.99
2023-04-07T00:38:34.445Z,22.98
2023-04-07T00:39:10.104Z,22.96
2023-04-07T00:39:45.421Z,22.95
2023-04-07T00:40:21.461Z,22.98
2023-04-07T00:40:57.526Z,22.94
2023-04-07T00:41:33.749Z,22.96
2023-04-07T00:42:09.660Z,22.95
2023-04-07T00:42:45.900Z,22.95
2023-04-07T00:43:21.456Z,22.96
2023-04-07T00:43:57.919Z,22.97
2023-04-07T00:44:33.551Z,22.95
2023-04-07T00:45:09.210Z,22.96
2023-04-07T00:45:45.248Z,22.95
2023-04-07T00:46:21.192Z,22.93
2023-04-07T00:46:57.486Z,22.94
2023-04-07T00:47:33.571Z,22.95
2023-04-07T00:48:09.511Z,22.92
2023-04-07T00:48:45.349Z,22.93
2023-04-07T00:49:20.770Z,22.96
2023-04-07T00:49:55.701Z,22.98
2023-04-07T00:50:31.546Z,22.91
2023-04-07T00:51:07.145Z,22.92
2023-04-07T00:51:43.238Z,22.94
2023-04-07T00:52:19.269Z,22.95
2023-04-07T00:52:55.458Z,22.93
2023-04-07T00:53:31.098Z,22.92
2023-04-07T00:54:07.293Z,22.88
2023-04-07T00:54:43.446Z,22.88
2023-04-07T00:55:18.882Z,22.91
2023-04-07T00:55:54.212Z,22.95
2023-04-07T00:56:30.365Z,22.96
2023-04-07T00:57:05.965Z,22.97
2023-04-07T00:57:42.342Z,22.96
2023-04-07T00:58:18.386Z,22.96
2023-04-07T00:58:54.209Z,22.96
2023-04-07T00:59:29.684Z,22.96
2023-04-07T01:00:05.974Z,22.93
2023-04-07T01:00:41.851Z,22.92
2023-04-07T01:01:17.468Z,22.95
2023-04-07T01:01:53.368Z,22.94
2023-04-07T01:02:29.663Z,22.90
2023-04-07T01:03:05.644Z,22.95
2023-04-07T01:03:42.073Z,22.91
2023-04-07T01:04:17.618Z,22.92
2023-04-07T01:04:52.674Z,22.91
2023-04-07T01:05:28.816Z,22.92
2023-04-07T01:06:04.582Z,22.92
2023-04-07T01:06:40.485Z,22.85
2023-04-07T01:07:16.671Z,22.82
2023-04-07T01:07:52.618Z,22.88
2023-04-07T01:08:28.497Z,22.91
2023-04-07T01:09:04.025Z,22.90
2023-04-07T01:09:39.741Z,22.89
2023-04-07T01:10:15.129Z,22.90
2023-04-07T01:10:51.470Z,22.91
2023-04-07T01:11:27.316Z,22.87
2023-04-07T01:12:03.246Z,22.88
2023-04-07T01:12:39.112Z,22.91
2023-04-07T01:13:15.638Z,22.90
2023-04-07T01:13:51.813Z,22.88
2023-04-07T01:14:27.847Z,22.88
2023-04-07T01:15:04.420Z,22.89
2023-04-07T01:15:39.664Z,22.90
2023-04-07T01:16:16.109Z,22.92
2023-04-07T01:16:53.821Z,22.90
2023-04-07T01:17:30.085Z,22.87
2023-04-07T01:18:06.450Z,22.88
2023-04-07T01:18:42.491Z,22.90
2023-04-07T01:19:17.610Z,22.86
2023-04-07T01:19:53.041Z,22.87
2023-04-07T01:20:28.948Z,22.88
2023-04-07T01:21:04.362Z,22.85
2023-04-07T01:21:40.450Z,22.85
2023-04-07T01:22:16.653Z,22.89
2023-04-07T01:22:52.507Z,22.91
2023-04-07T01:23:28.361Z,22.92
2023-04-07T01:24:04.009Z,22.96
2023-04-07T01:24:40.287Z,22.91
2023-04-07T01:25:16.203Z,22.95
2023-04-07T01:25:51.802Z,22.86
2023-04-07T01:26:27.449Z,22.86
2023-04-07T01:27:03.459Z,22.86
2023-04-07T01:27:39.394Z,22.91
2023-04-07T01:28:15.144Z,22.90
2023-04-07T01:28:51.786Z,22.92
2023-04-07T01:29:27.112Z,22.90
2023-04-07T01:30:03.364Z,22.87
2023-04-07T01:30:39.338Z,22.83
2023-04-07T01:31:15.870Z,22.84
2023-04-07T01:31:51.802Z,22.87
2023-04-07T01:32:27.806Z,22.89
2023-04-07T01:33:03.788Z,22.92
2023-04-07T01:33:39.581Z,22.90
2023-04-07T01:34:15.261Z,22.87
2023-04-07T01:34:50.590Z,22.89
2023-04-07T01:35:27.249Z,22.86
2023-04-07T01:36:03.311Z,22.86
2023-04-07T01:36:39.010Z,22.80
2023-04-07T01:37:15.578Z,22.82
2023-04-07T01:37:51.660Z,22.79
2023-04-07T01:38:27.575Z,22.83
2023-04-07T01:39:03.429Z,22.89
2023-04-07T01:39:38.636Z,22.89
2023-04-07T01:40:14.901Z,22.88
2023-04-07T01:40:50.424Z,22.89
2023-04-07T01:41:27.009Z,22.89
2023-04-07T01:42:02.905Z,22.90
2023-04-07T01:42:38.760Z,22.91
2023-04-07T01:43:14.717Z,22.88
2023-04-07T01:43:51.194Z,22.90
2023-04-07T01:44:26.764Z,22.92
2023-04-07T01:45:03.417Z,22.92
2023-04-07T01:45:39.512Z,22.94
2023-04-07T01:46:15.696Z,22.95
2023-04-07T01:46:51.983Z,22.93
2023-04-07T01:47:27.896Z,22.91
2023-04-07T01:48:04.052Z,22.91
2023-04-07T01:48:39.904Z,22.90
2023-04-07T01:49:16.109Z,22.94
2023-04-07T01:49:51.585Z,22.91
2023-04-07T01:50:27.308Z,22.93
2023-04-07T01:51:03.046Z,22.93
2023-04-07T01:51:39.226Z,22.96
2023-04-07T01:52:16.952Z,22.93
2023-04-07T01:52:53.191Z,22.92
2023-04-07T01:53:29.002Z,22.93
2023-04-07T01:54:04.819Z,22.88
2023-04-07T01:54:41.036Z,22.88
2023-04-07T01:55:16.762Z,22.90
2023-04-07T01:55:52.063Z,22.90
2023-04-07T01:56:28.136Z,22.93
2023-04-07T01:57:03.816Z,22.93
2023-04-07T01:57:40.088Z,22.92
2023-04-07T01:58:16.032Z,22.92
2023-04-07T01:58:51.711Z,22.91
2023-04-07T01:59:27.917Z,22.92
2023-04-07T02:00:06.249Z,22.89
2023-04-07T02:00:41.953Z,22.89
2023-04-07T02:01:17.745Z,22.91
2023-04-07T02:01:53.824Z,22.90
2023-04-07T02:02:30.314Z,22.88
2023-04-07T02:03:06.566Z,22.87
2023-04-07T02:03:42.688Z,22.86
2023-04-07T02:04:18.743Z,22.88
2023-04-07T02:04:54.253Z,22.84
2023-04-07T02:05:30.542Z,22.85
2023-04-07T02:06:05.642Z,22.82
2023-04-07T02:06:41.328Z,22.87
2023-04-07T02:07:17.222Z,22.90
2023-04-07T02:07:53.902Z,22.90
2023-04-07T02:08:30.559Z,22.90
2023-04-07T02:09:07.099Z,22.88
2023-04-07T02:09:43.241Z,22.88
2023-04-07T02:10:19.653Z,22.87
2023-04-07T02:10:55.796Z,22.86
2023-04-07T02:11:31.366Z,22.87
2023-04-07T02:12:07.030Z,22.84
2023-04-07T02:12:43.083Z,22.86
2023-04-07T02:13:19.209Z,22.86
2023-04-07T02:13:55.224Z,22.87
2023-04-07T02:14:31.107Z,22.89
2023-04-07T02:15:06.832Z,22.92
2023-04-07T02:15:43.056Z,22.90
2023-04-07T02:16:19.165Z,22.90
2023-04-07T02:16:54.838Z,22.88
2023-04-07T02:17:30.047Z,22.87
2023-04-07T02:18:06.358Z,22.89
2023-04-07T02:18:42.224Z,22.85
2023-04-07T02:19:18.271Z,22.81
2023-04-07T02:19:54.158Z,22.77
2023-04-07T02:20:30.201Z,22.79
2023-04-07T02:21:06.103Z,22.77
2023-04-07T02:21:42.364Z,22.83
2023-04-07T02:22:17.858Z,22.83
2023-04-07T02:22:53.688Z,22.87
2023-04-07T02:23:29.612Z,22.89
2023-04-07T02:24:05.394Z,22.88
2023-04-07T02:24:42.005Z,22.88
2023-04-07T02:25:18.171Z,22.90
2023-04-07T02:25:53.941Z,22.91
2023-04-07T02:26:30.607Z,22.90
2023-04-07T02:27:07.048Z,22.87
2023-04-07T02:27:43.201Z,22.84
2023-04-07T02:28:18.926Z,22.88
2023-04-07T02:28:55.811Z,22.91
2023-04-07T02:29:31.728Z,22.92
2023-04-07T02:30:07.544Z,22.90
2023-04-07T02:30:43.683Z,22.90
2023-04-07T02:31:19.803Z,22.91
2023-04-07T02:31:56.589Z,22.88
2023-04-07T02:32:32.213Z,22.82
2023-04-07T02:33:07.870Z,22.83
2023-04-07T02:33:43.329Z,22.88
2023-04-07T02:34:18.408Z,22.87
2023-04-07T02:34:53.904Z,22.89
2023-04-07T02:35:29.543Z,22.89
2023-04-07T02:36:05.541Z,22.87
2023-04-07T02:36:41.799Z,22.91
2023-04-07T02:37:17.420Z,22.90
2023-04-07T02:37:54.076Z,22.89
2023-04-07T02:38:30.509Z,22.88
2023-04-07T02:39:06.502Z,22.87
2023-04-07T02:39:42.236Z,22.87
2023-04-07T02:40:17.898Z,22.84
2023-04-07T02:40:53.685Z,22.85
2023-04-07T02:41:29.957Z,22.87
2023-04-07T02:42:05.407Z,22.90
2023-04-07T02:42:41.570Z,22.92
2023-04-07T02:43:17.686Z,22.90
2023-04-07T02:43:54.478Z,22.86
2023-04-07T02:44:30.474Z,22.86
2023-04-07T02:45:06.215Z,22.88
2023-04-07T02:45:41.530Z,22.87
2023-04-07T02:46:17.946Z,22.85
2023-04-07T02:46:53.539Z,22.86
2023-04-07T02:47:29.431Z,22.85
2023-04-07T02:48:05.207Z,22.83
2023-04-07T02:48:41.436Z,22.82
2023-04-07T02:49:17.409Z,22.82
2023-04-07T02:49:53.552Z,22.79
2023-04-07T02:50:29.068Z,22.87
2023-04-07T02:51:04.509Z,22.79
2023-04-07T02:51:40.262Z,22.85
2023-04-07T02:52:17.202Z,22.87
2023-04-07T02:52:53.948Z,22.87
2023-04-07T02:53:29.713Z,22.82
2023-04-07T02:54:05.588Z,22.76
2023-04-07T02:54:41.618Z,22.74
2023-04-07T02:55:17.698Z,22.79
2023-04-07T02:55:53.711Z,22.78
2023-04-07T02:56:28.984Z,22.82
2023-04-07T02:57:04.880Z,22.84
2023-04-07T02:57:40.429Z,22.87
2023-04-07T02:58:16.862Z,22.86
2023-04-07T02:58:53.014Z,22.89
2023-04-07T02:59:28.791Z,22.90
2023-04-07T03:00:05.884Z,22.89
2023-04-07T03:00:42.242Z,22.90
2023-04-07T03:01:17.969Z,22.86
2023-04-07T03:01:53.418Z,22.88
2023-04-07T03:02:29.279Z,22.92
2023-04-07T03:03:05.346Z,22.88
2023-04-07T03:03:41.376Z,22.90
2023-04-07T03:04:17.431Z,22.88
2023-04-07T03:04:53.370Z,22.87
2023-04-07T03:05:29.078Z,22.91
2023-04-07T03:06:04.940Z,22.89
2023-04-07T03:06:40.425Z,22.87
2023-04-07T03:07:15.677Z,22.90
2023-04-07T03:07:51.280Z,22.90
2023-04-07T03:08:27.234Z,22.91
2023-04-07T03:09:03.491Z,22.93
2023-04-07T03:09:39.290Z,22.92
2023-04-07T03:10:15.524Z,22.87
2023-04-07T03:10:51.234Z,22.82
2023-04-07T03:11:27.381Z,22.86
2023-04-07T03:12:02.597Z,22.87
2023-04-07T03:12:38.346Z,22.87
2023-04-07T03:13:14.256Z,22.83
2023-04-07T03:13:50.179Z,22.83
2023-04-07T03:14:26.169Z,22.78
2023-04-07T03:15:04.527Z,22.83
2023-04-07T03:15:40.479Z,22.89
2023-04-07T03:16:16.456Z,22.87
2023-04-07T03:16:52.154Z,22.88
2023-04-07T03:17:27.959Z,22.89
2023-04-07T03:18:03.452Z,22.89
2023-04-07T03:18:38.957Z,22.91
2023-04-07T03:19:15.038Z,22.91
2023-04-07T03:19:50.647Z,22.85
2023-04-07T03:20:26.849Z,22.89
2023-04-07T03:21:03.331Z,22.89
2023-04-07T03:21:39.340Z,22.91
2023-04-07T03:22:15.241Z,22.91
2023-04-07T03:22:50.738Z,22.88
2023-04-07T03:23:26.459Z,22.89
2023-04-07T03:24:02.459Z,22.88
2023-04-07T03:24:38.538Z,22.87
2023-04-07T03:25:14.549Z,22.86
2023-04-07T03:25:50.810Z,22.87
2023-04-07T03:26:26.777Z,22.88
2023-04-07T03:27:02.597Z,22.87
2023-04-07T03:27:38.506Z,22.87
2023-04-07T03:28:14.333Z,22.84
2023-04-07T03:28:50.023Z,22.86
2023-04-07T03:29:26.008Z,22.87
2023-04-07T03:30:02.086Z,22.87
2023-04-07T03:30:37.782Z,22.89
2023-04-07T03:31:13.107Z,22.87
2023-04-07T03:31:49.321Z,22.88
2023-04-07T03:32:25.726Z,22.88
2023-04-07T03:33:01.476Z,22.88
2023-04-07T03:33:36.999Z,22.89
2023-04-07T03:34:12.299Z,22.91
2023-04-07T03:34:47.947Z,22.90
2023-04-07T03:35:24.049Z,22.89
2023-04-07T03:36:00.004Z,22.87
2023-04-07T03:36:36.197Z,22.88
2023-04-07T03:37:12.183Z,22.89
2023-04-07T03:37:48.222Z,22.86
2023-04-07T03:38:24.523Z,22.90
2023-04-07T03:39:00.585Z,22.85
2023-04-07T03:39:35.910Z,22.88
2023-04-07T03:40:12.120Z,22.88
2023-04-07T03:40:48.179Z,22.86
2023-04-07T03:41:24.989Z,22.88
2023-04-07T03:42:01.656Z,22.90
2023-04-07T03:42:37.696Z,22.89
2023-04-07T03:43:13.641Z,22.88
2023-04-07T03:43:49.652Z,22.85
2023-04-07T03:44:25.223Z,22.84
2023-04-07T03:45:01.159Z,22.79
2023-04-07T03:45:37.949Z,22.83
2023-04-07T03:46:13.487Z,22.85
2023-04-07T03:46:49.528Z,22.87
2023-04-07T03:47:25.478Z,22.87
2023-04-07T03:48:01.315Z,22.88
2023-04-07T03:48:37.415Z,22.86
2023-04-07T03:49:13.621Z,22.85
2023-04-07T03:49:49.316Z,22.88
2023-04-07T03:50:25.403Z,22.78
2023-04-07T03:51:01.143Z,22.77
2023-04-07T03:51:37.257Z,22.79
2023-04-07T03:52:13.668Z,22.82
2023-04-07T03:52:49.539Z,22.81
2023-04-07T03:53:25.154Z,22.85
2023-04-07T03:54:01.262Z,22.85
2023-04-07T03:54:37.022Z,22.87
2023-04-07T03:55:12.842Z,22.86
2023-04-07T03:55:48.683Z,22.82
2023-04-07T03:56:24.669Z,22.87
2023-04-07T03:57:00.782Z,22.88
2023-04-07T03:57:36.989Z,22.90
2023-04-07T03:58:13.048Z,22.89
2023-04-07T03:58:49.208Z,22.90
2023-04-07T03:59:25.331Z,22.90
2023-04-07T04:00:00.898Z,22.89
2023-04-07T04:00:38.408Z,22.90
2023-04-07T04:01:14.236Z,22.89
2023-04-07T04:01:50.340Z,22.90
2023-04-07T04:02:26.454Z,22.90
2023-04-07T04:03:02.629Z,22.90
2023-04-07T04:03:38.240Z,22.88
2023-04-07T04:04:14.271Z,22.89
2023-04-07T04:04:50.091Z,22.89
2023-04-07T04:05:25.901Z,22.89
2023-04-07T04:06:01.148Z,22.88
2023-04-07T04:06:37.186Z,22.88
2023-04-07T04:07:13.217Z,22.88
2023-04-07T04:07:49.051Z,22.87
2023-04-07T04:08:25.536Z,22.87
2023-04-07T04:09:01.519Z,22.85
2023-04-07T04:09:37.439Z,22.88
2023-04-07T04:10:13.734Z,22.87
2023-04-07T04:10:49.380Z,22.87
2023-04-07T04:11:25.230Z,22.86
2023-04-07T04:12:01.754Z,22.88
2023-04-07T04:12:37.448Z,22.90
2023-04-07T04:13:13.810Z,22.90
2023-04-07T04:13:49.709Z,22.89
2023-04-07T04:14:25.709Z,22.89
2023-04-07T04:15:03.805Z,22.90
2023-04-07T04:15:40.565Z,22.89
2023-04-07T04:16:16.167Z,22.86
2023-04-07T04:16:51.732Z,22.89
2023-04-07T04:17:27.738Z,22.87
2023-04-07T04:18:03.703Z,22.87
2023-04-07T04:18:39.457Z,22.87
2023-04-07T04:19:15.516Z,22.87
2023-04-07T04:19:51.068Z,22.88
2023-04-07T04:20:27.231Z,22.87
2023-04-07T04:21:03.379Z,22.87
2023-04-07T04:21:39.121Z,22.88
2023-04-07T04:22:14.734Z,22.88
2023-04-07T04:22:50.120Z,22.90
2023-04-07T04:23:26.463Z,22.87
2023-04-07T04:24:04.754Z,22.86
2023-04-07T04:24:40.949Z,22.85
2023-04-07T04:25:16.992Z,22.85
2023-04-07T04:25:53.025Z,22.84
2023-04-07T04:26:28.650Z,22.85
2023-04-07T04:27:04.569Z,22.87
2023-04-07T04:27:40.147Z,22.88
2023-04-07T04:28:15.821Z,22.87
2023-04-07T04:28:51.976Z,22.89
2023-04-07T04:29:27.442Z,22.89
2023-04-07T04:30:06.889Z,22.88
2023-04-07T04:30:42.711Z,22.88
2023-04-07T04:31:18.676Z,22.87
2023-04-07T04:31:54.649Z,22.86
2023-04-07T04:32:30.484Z,22.88
2023-04-07T04:33:06.272Z,22.87
2023-04-07T04:33:41.820Z,22.87
2023-04-07T04:34:17.990Z,22.89
2023-04-07T04:34:53.975Z,22.85
2023-04-07T04:35:30.177Z,22.84
2023-04-07T04:36:06.113Z,22.85
2023-04-07T04:36:41.937Z,22.84
2023-04-07T04:37:18.314Z,22.85
2023-04-07T04:37:53.785Z,22.86
2023-04-07T04:38:29.290Z,22.85
2023-04-07T04:39:05.326Z,22.85
2023-04-07T04:39:41.295Z,22.87
2023-04-07T04:40:17.237Z,22.89
2023-04-07T04:40:52.811Z,22.88
2023-04-07T04:41:29.144Z,22.89
2023-04-07T04:42:04.947Z,22.88
2023-04-07T04:42:40.556Z,22.87
2023-04-07T04:43:16.565Z,22.88
2023-04-07T04:43:51.963Z,22.83
2023-04-07T04:44:27.578Z,22.87
2023-04-07T04:45:06.571Z,22.87
2023-04-07T04:45:42.125Z,22.89
2023-04-07T04:46:18.450Z,22.85
2023-04-07T04:46:54.816Z,22.87
2023-04-07T04:47:30.712Z,22.89
2023-04-07T04:48:06.568Z,22.87
2023-04-07T04:48:42.190Z,22.86
2023-04-07T04:49:17.944Z,22.87
2023-04-07T04:49:53.917Z,22.87
2023-04-07T04:50:29.961Z,22.88
2023-04-07T04:51:06.243Z,22.87
2023-04-07T04:51:42.847Z,22.86
2023-04-07T04:52:18.825Z,22.87
2023-04-07T04:52:55.355Z,22.86
2023-04-07T04:53:31.271Z,22.89
2023-04-07T04:54:06.462Z,22.89
2023-04-07T04:54:42.491Z,22.91
2023-04-07T04:55:18.690Z,22.92
2023-04-07T04:55:54.242Z,22.91
2023-04-07T04:56:30.480Z,22.91
2023-04-07T04:57:06.288Z,22.88
2023-04-07T04:57:42.366Z,22.87
2023-04-07T04:58:18.087Z,22.89
2023-04-07T04:58:54.196Z,22.88
2023-04-07T04:59:29.773Z,22.88
2023-04-07T05:00:06.239Z,22.89
2023-04-07T05:00:42.124Z,22.89
2023-04-07T05:01:18.468Z,22.87
2023-04-07T05:01:54.770Z,22.87
2023-04-07T05:02:30.871Z,22.85
2023-04-07T05:03:07.536Z,22.87
2023-04-07T05:03:44.000Z,22.83
2023-04-07T05:04:19.661Z,22.87
2023-04-07T05:04:54.939Z,22.87
2023-04-07T05:05:30.423Z,22.87
2023-04-07T05:06:06.422Z,22.88
2023-04-07T05:06:42.765Z,22.88
2023-04-07T05:07:18.638Z,22.86
2023-04-07T05:07:54.533Z,22.87
2023-04-07T05:08:30.411Z,22.88
2023-04-07T05:09:06.276Z,22.89
2023-04-07T05:09:41.513Z,22.88
2023-04-07T05:10:16.794Z,22.87
2023-04-07T05:10:52.692Z,22.88
2023-04-07T05:11:29.137Z,22.88
2023-04-07T05:12:04.855Z,22.90
2023-04-07T05:12:41.185Z,22.88
2023-04-07T05:13:17.137Z,22.86
2023-04-07T05:13:53.743Z,22.88
2023-04-07T05:14:29.618Z,22.88
2023-04-07T05:15:06.694Z,22.87
2023-04-07T05:15:42.244Z,22.87
2023-04-07T05:16:18.419Z,22.91
2023-04-07T05:16:54.252Z,22.90
2023-04-07T05:17:30.207Z,22.88
2023-04-07T05:18:06.030Z,22.87
2023-04-07T05:18:41.492Z,22.87
2023-04-07T05:19:16.981Z,22.86
2023-04-07T05:19:53.600Z,22.85
2023-04-07T05:20:29.710Z,22.88
2023-04-07T05:21:05.877Z,22.86
2023-04-07T05:21:41.614Z,22.83
2023-04-07T05:22:18.140Z,22.84
2023-04-07T05:22:54.773Z,22.82
2023-04-07T05:23:30.862Z,22.85
2023-04-07T05:24:08.068Z,22.87
2023-04-07T05:24:44.160Z,22.86
2023-04-07T05:25:19.828Z,22.88
2023-04-07T05:25:56.155Z,22.84
2023-04-07T05:26:32.165Z,22.79
2023-04-07T05:27:08.095Z,22.84
2023-04-07T05:27:43.966Z,22.86
2023-04-07T05:28:20.027Z,22.84
2023-04-07T05:28:55.977Z,22.85
2023-04-07T05:29:31.539Z,22.83
2023-04-07T05:30:07.053Z,22.85
2023-04-07T05:30:44.112Z,22.82
2023-04-07T05:31:20.099Z,22.82
2023-04-07T05:31:56.139Z,22.82
2023-04-07T05:32:31.666Z,22.81
2023-04-07T05:33:08.263Z,22.79
2023-04-07T05:33:43.581Z,22.76
2023-04-07T05:34:19.008Z,22.72
2023-04-07T05:34:54.945Z,22.76
2023-04-07T05:35:30.705Z,22.71
2023-04-07T05:36:06.544Z,22.69
2023-04-07T05:36:42.539Z,22.74
2023-04-07T05:37:18.534Z,22.75
2023-04-07T05:37:54.414Z,22.79
2023-04-07T05:38:30.448Z,22.81
2023-04-07T05:39:06.102Z,22.80
2023-04-07T05:39:41.813Z,22.81
2023-04-07T05:40:17.678Z,22.78
2023-04-07T05:40:53.673Z,22.79
2023-04-07T05:41:30.025Z,22.77
2023-04-07T05:42:05.753Z,22.81
2023-04-07T05:42:41.669Z,22.81
2023-04-07T05:43:17.563Z,22.84
2023-04-07T05:43:53.326Z,22.83
2023-04-07T05:44:28.999Z,22.84
2023-04-07T05:45:05.965Z,22.83
2023-04-07T05:45:42.151Z,22.82
2023-04-07T05:46:18.294Z,22.81
2023-04-07T05:46:54.170Z,22.85
2023-04-07T05:47:30.364Z,22.85
2023-04-07T05:48:06.524Z,22.82
2023-04-07T05:48:42.278Z,22.77
2023-04-07T05:49:20.151Z,22.80
2023-04-07T05:49:55.666Z,22.78
2023-04-07T05:50:31.914Z,22.79
2023-04-07T05:51:07.775Z,22.81
2023-04-07T05:51:44.863Z,22.84
2023-04-07T05:52:21.139Z,22.78
2023-04-07T05:52:56.916Z,22.74
2023-04-07T05:53:33.089Z,22.75
2023-04-07T05:54:09.385Z,22.77
2023-04-07T05:54:45.506Z,22.77
2023-04-07T05:55:21.018Z,22.77
2023-04-07T05:55:56.922Z,22.79
2023-04-07T05:56:32.458Z,22.78
2023-04-07T05:57:08.815Z,22.79
2023-04-07T05:57:44.722Z,22.81
2023-04-07T05:58:20.720Z,22.79
2023-04-07T05:58:57.030Z,22.77
2023-04-07T05:59:33.369Z,22.78
2023-04-07T06:00:08.553Z,22.81
2023-04-07T06:00:44.157Z,22.81
2023-04-07T06:01:19.930Z,22.82
2023-04-07T06:01:55.601Z,22.82
2023-04-07T06:02:32.056Z,22.84
2023-04-07T06:03:07.941Z,22.83
2023-04-07T06:03:43.146Z,22.85
2023-04-07T06:04:18.264Z,22.83
2023-04-07T06:04:54.708Z,22.81
2023-04-07T06:05:30.555Z,22.83
2023-04-07T06:06:06.381Z,22.83
2023-04-07T06:06:42.592Z,22.86
2023-04-07T06:07:18.109Z,22.86
2023-04-07T06:07:54.041Z,22.86
2023-04-07T06:08:30.280Z,22.86
2023-04-07T06:09:07.034Z,22.86
2023-04-07T06:09:43.696Z,22.86
2023-04-07T06:10:19.248Z,22.85
2023-04-07T06:10:55.287Z,22.83
2023-04-07T06:11:31.510Z,22.85
2023-04-07T06:12:07.818Z,22.82
2023-04-07T06:12:43.809Z,22.82
2023-04-07T06:13:19.596Z,22.82
2023-04-07T06:13:55.746Z,22.81
2023-04-07T06:14:31.521Z,22.79
2023-04-07T06:15:07.425Z,22.78
2023-04-07T06:15:43.343Z,22.79
2023-04-07T06:16:19.807Z,22.81
2023-04-07T06:16:53.376Z,22.83
2023-04-07T06:17:26.870Z,22.83
2023-04-07T06:18:02.832Z,22.82
2023-04-07T06:18:39.080Z,22.84
2023-04-07T06:19:14.496Z,22.80
2023-04-07T06:19:50.152Z,22.82
2023-04-07T06:20:25.976Z,22.80
2023-04-07T06:21:01.678Z,22.82
2023-04-07T06:21:37.875Z,22.81
2023-04-07T06:22:13.730Z,22.83
2023-04-07T06:22:49.608Z,22.85
2023-04-07T06:23:25.055Z,22.83
2023-04-07T06:24:01.427Z,22.83
2023-04-07T06:24:37.541Z,22.83
2023-04-07T06:25:12.914Z,22.81
2023-04-07T06:25:49.154Z,22.81
2023-04-07T06:26:25.073Z,22.82
2023-04-07T06:27:00.716Z,22.83
2023-04-07T06:27:37.023Z,22.82
2023-04-07T06:28:12.722Z,22.81
2023-04-07T06:28:49.042Z,22.85
2023-04-07T06:29:24.962Z,22.80
2023-04-07T06:30:01.050Z,22.83
2023-04-07T06:30:38.740Z,22.83
2023-04-07T06:31:15.064Z,22.79
2023-04-07T06:31:50.800Z,22.77
2023-04-07T06:32:26.837Z,22.80
2023-04-07T06:33:02.967Z,22.80
2023-04-07T06:33:38.767Z,22.77
2023-04-07T06:34:15.162Z,22.81
2023-04-07T06:34:51.065Z,22.80
2023-04-07T06:35:26.903Z,22.82
2023-04-07T06:36:02.483Z,22.83
2023-04-07T06:36:38.321Z,22.83
2023-04-07T06:37:14.203Z,22.82
2023-04-07T06:37:50.221Z,22.82
2023-04-07T06:38:26.492Z,22.80
2023-04-07T06:39:02.924Z,22.82
2023-04-07T06:39:38.739Z,22.83
2023-04-07T06:40:14.155Z,22.82
2023-04-07T06:40:50.176Z,22.78
2023-04-07T06:41:25.977Z,22.80
2023-04-07T06:42:01.996Z,22.81
2023-04-07T06:42:38.174Z,22.80
2023-04-07T06:43:14.065Z,22.82
2023-04-07T06:43:50.012Z,22.82
2023-04-07T06:44:26.157Z,22.77
2023-04-07T06:45:01.935Z,22.78
2023-04-07T06:45:39.160Z,22.78
2023-04-07T06:46:14.721Z,22.82
2023-04-07T06:46:50.080Z,22.80
2023-04-07T06:47:26.091Z,22.79
2023-04-07T06:48:01.631Z,22.81
2023-04-07T06:48:37.954Z,22.82
2023-04-07T06:49:13.882Z,22.83
2023-04-07T06:49:49.596Z,22.83
2023-04-07T06:50:25.868Z,22.79
2023-04-07T06:51:02.268Z,22.79
2023-04-07T06:51:37.893Z,22.82
2023-04-07T06:52:13.349Z,22.78
2023-04-07T06:52:49.526Z,22.81
2023-04-07T06:53:25.630Z,22.80
2023-04-07T06:54:01.522Z,22.79
2023-04-07T06:54:37.589Z,22.73
2023-04-07T06:55:13.969Z,22.74
2023-04-07T06:55:49.448Z,22.76
2023-04-07T06:56:26.147Z,22.76
2023-04-07T06:57:01.530Z,22.77
2023-04-07T06:57:37.242Z,22.74
2023-04-07T06:58:12.976Z,22.76
2023-04-07T06:58:49.365Z,22.78
2023-04-07T06:59:25.482Z,22.81
2023-04-07T07:00:01.031Z,22.82
2023-04-07T07:00:38.499Z,22.80
2023-04-07T07:01:14.791Z,22.77
2023-04-07T07:01:50.629Z,22.73
2023-04-07T07:02:26.559Z,22.77
2023-04-07T07:03:02.069Z,22.79
2023-04-07T07:03:37.977Z,22.75
2023-04-07T07:04:13.596Z,22.78
2023-04-07T07:04:49.868Z,22.81
2023-04-07T07:05:26.174Z,22.82
2023-04-07T07:06:02.091Z,22.82
2023-04-07T07:06:39.065Z,22.79
2023-04-07T07:07:14.703Z,22.81
2023-04-07T07:07:50.307Z,22.80
2023-04-07T07:08:26.103Z,22.80
2023-04-07T07:09:02.036Z,22.78
2023-04-07T07:09:38.124Z,22.79
2023-04-07T07:10:14.244Z,22.79
2023-04-07T07:10:49.961Z,22.81
2023-04-07T07:11:26.333Z,22.79
2023-04-07T07:12:04.044Z,22.75
2023-04-07T07:12:39.869Z,22.78
2023-04-07T07:13:15.575Z,22.77
2023-04-07T07:13:50.899Z,22.75
2023-04-07T07:14:26.831Z,22.77
2023-04-07T07:15:05.534Z,22.74
2023-04-07T07:15:41.183Z,22.75
2023-04-07T07:16:17.648Z,22.73
2023-04-07T07:16:53.639Z,22.76
2023-04-07T07:17:29.500Z,22.72
2023-04-07T07:18:05.635Z,22.71
2023-04-07T07:18:41.090Z,22.71
2023-04-07T07:19:16.237Z,22.72
2023-04-07T07:19:52.189Z,22.67
2023-04-07T07:20:28.293Z,22.68
2023-04-07T07:21:04.236Z,22.71
2023-04-07T07:21:40.429Z,22.69
2023-04-07T07:22:15.982Z,22.68
2023-04-07T07:22:51.814Z,22.71
2023-04-07T07:23:28.250Z,22.72
2023-04-07T07:24:04.030Z,22.76
2023-04-07T07:24:39.540Z,22.75
2023-04-07T07:25:15.480Z,22.70
2023-04-07T07:25:51.301Z,22.70
2023-04-07T07:26:27.572Z,22.66
2023-04-07T07:27:03.305Z,22.65
2023-04-07T07:27:39.748Z,22.65
2023-04-07T07:28:15.623Z,22.70
2023-04-07T07:28:51.830Z,22.72
2023-04-07T07:29:27.533Z,22.68
2023-04-07T07:30:04.628Z,22.67
2023-04-07T07:30:41.202Z,22.69
2023-04-07T07:31:17.420Z,22.68
2023-04-07T07:31:54.469Z,22.69
2023-04-07T07:32:30.192Z,22.76
2023-04-07T07:33:06.742Z,22.73
2023-04-07T07:33:42.928Z,22.74
2023-04-07T07:34:18.839Z,22.70
2023-04-07T07:34:54.479Z,22.70
2023-04-07T07:35:30.092Z,22.72
2023-04-07T07:36:05.959Z,22.69
2023-04-07T07:36:41.795Z,22.71
2023-04-07T07:37:17.897Z,22.69
2023-04-07T07:37:53.878Z,22.67
2023-04-07T07:38:29.872Z,22.69
2023-04-07T07:39:05.842Z,22.66
2023-04-07T07:39:41.680Z,22.68
2023-04-07T07:40:17.809Z,22.72
2023-04-07T07:40:53.092Z,22.70
2023-04-07T07:41:28.665Z,22.74
2023-04-07T07:42:04.717Z,22.76
2023-04-07T07:42:40.654Z,22.75
2023-04-07T07:43:16.789Z,22.74